Time;durP1;ratioP1;P1;durP2;ratioP2;P2;SDS_P1;SDS_P2;PMS_P1;PMS_P2;Temp;Humidity;BMP_temperature;BMP_pressure;BME280_temperature;BME280_humidity;BME280_pressure;Samples;Min_cycle;Max_cycle;Signal;HPM_P1;HPM_P2
2022/07/14 00:00:43;;;;;;;1.10;1.10;;;23.30;70.50;;;;;;5054393;28;20224;-83
2022/07/14 00:03:13;;;;;;;1.40;1.30;;;23.30;70.40;;;;;;5054075;28;20225;-83
2022/07/14 00:05:42;;;;;;;2.25;1.17;;;23.30;70.30;;;;;;5054680;28;20210;-83
2022/07/14 00:08:10;;;;;;;1.42;1.05;;;23.20;70.20;;;;;;5054629;28;20213;-83
2022/07/14 00:10:39;;;;;;;1.67;1.00;;;23.20;70.10;;;;;;5054410;28;20206;-83
2022/07/14 00:13:07;;;;;;;0.90;0.90;;;23.20;70.10;;;;;;5054353;28;20307;-83
2022/07/14 00:15:35;;;;;;;1.00;0.90;;;23.20;70.10;;;;;;5054171;28;20239;-83
2022/07/14 00:18:04;;;;;;;1.88;1.15;;;23.20;70.00;;;;;;5054334;28;20213;-83
2022/07/14 00:20:34;;;;;;;1.00;0.98;;;23.10;69.90;;;;;;5054623;28;20232;-83
2022/07/14 00:23:02;;;;;;;1.35;1.02;;;23.20;70.00;;;;;;5054530;28;20225;-83
2022/07/14 00:25:31;;;;;;;2.25;1.00;;;23.20;70.00;;;;;;5054773;28;20198;-83
2022/07/14 00:27:59;;;;;;;2.78;1.15;;;23.20;70.10;;;;;;5054367;28;20239;-83
2022/07/14 00:30:28;;;;;;;3.35;1.10;;;23.20;70.30;;;;;;5053970;28;20283;-83
2022/07/14 00:32:56;;;;;;;1.15;1.00;;;23.10;70.50;;;;;;5054185;28;20205;-83
2022/07/14 00:35:25;;;;;;;1.77;1.40;;;23.10;70.50;;;;;;5054239;28;20222;-83
2022/07/14 00:37:54;;;;;;;1.55;1.27;;;23.00;71.40;;;;;;5054249;28;20202;-83
2022/07/14 00:40:23;;;;;;;0.90;0.90;;;23.00;71.10;;;;;;5053022;28;20210;-83
2022/07/14 00:42:51;;;;;;;0.90;0.90;;;23.00;71.40;;;;;;5053647;28;20205;-83
2022/07/14 00:45:21;;;;;;;1.42;1.33;;;22.90;71.60;;;;;;5054129;28;20271;-83
2022/07/14 00:47:50;;;;;;;1.83;1.05;;;22.80;71.80;;;;;;5053963;28;20202;-83
2022/07/14 00:50:20;;;;;;;1.23;1.17;;;22.80;71.90;;;;;;5053898;28;20206;-83
2022/07/14 00:52:50;;;;;;;1.20;1.10;;;22.80;71.70;;;;;;5053374;28;20224;-83
2022/07/14 00:55:20;;;;;;;1.05;1.05;;;22.70;71.80;;;;;;5053777;28;20222;-83
2022/07/14 00:57:48;;;;;;;1.10;1.10;;;22.70;71.90;;;;;;5054030;28;20201;-83
2022/07/14 01:00:18;;;;;;;0.77;0.77;;;22.70;71.80;;;;;;5053500;28;20209;-83
2022/07/14 01:02:47;;;;;;;0.90;0.90;;;22.60;71.70;;;;;;5053291;28;20201;-83
2022/07/14 01:05:16;;;;;;;0.93;0.93;;;22.60;71.60;;;;;;5053521;28;20201;-83
2022/07/14 01:07:44;;;;;;;1.38;1.20;;;22.60;71.70;;;;;;5053189;28;20198;-83
2022/07/14 01:10:13;;;;;;;0.70;0.70;;;22.60;71.30;;;;;;5053308;28;20206;-83
2022/07/14 01:12:45;;;;;;;6.45;1.13;;;22.70;71.40;;;;;;5053737;28;20217;-83
2022/07/14 01:15:15;;;;;;;2.15;1.10;;;22.70;71.30;;;;;;5053223;28;20413;-83
2022/07/14 01:17:43;;;;;;;1.15;1.08;;;22.70;70.90;;;;;;5053634;28;20205;-83
2022/07/14 01:20:12;;;;;;;1.67;1.33;;;22.70;70.70;;;;;;5053071;28;20217;-83
2022/07/14 01:22:42;;;;;;;0.85;0.85;;;22.80;70.70;;;;;;5053291;28;20213;-83
2022/07/14 01:25:14;;;;;;;1.17;1.10;;;22.80;71.10;;;;;;5053188;28;20198;-83
2022/07/14 01:27:43;;;;;;;0.85;0.85;;;22.80;70.30;;;;;;5053287;28;20221;-82
2022/07/14 01:30:15;;;;;;;1.00;1.00;;;22.80;70.20;;;;;;5053078;28;20221;-83
2022/07/14 01:32:43;;;;;;;0.93;0.93;;;22.80;70.20;;;;;;5053314;28;20232;-83
2022/07/14 01:35:12;;;;;;;0.77;0.77;;;22.80;70.20;;;;;;5053135;28;20225;-83
2022/07/14 01:37:41;;;;;;;1.42;0.88;;;22.80;70.50;;;;;;5052985;28;20206;-83
2022/07/14 01:40:11;;;;;;;1.00;0.90;;;22.70;70.10;;;;;;5053038;28;20233;-83
2022/07/14 01:42:39;;;;;;;1.38;1.05;;;22.70;70.40;;;;;;5052620;28;20210;-83
2022/07/14 01:45:11;;;;;;;0.68;0.68;;;22.80;70.70;;;;;;5053297;28;20202;-83
2022/07/14 01:47:39;;;;;;;0.93;0.93;;;22.70;70.70;;;;;;5052745;28;20205;-83
2022/07/14 01:50:08;;;;;;;0.70;0.70;;;22.60;71.00;;;;;;5052713;28;20206;-83
2022/07/14 01:52:36;;;;;;;1.02;0.93;;;22.50;71.00;;;;;;5051713;28;20209;-83
2022/07/14 01:55:08;;;;;;;1.08;0.95;;;22.50;71.20;;;;;;5052681;28;20232;-83
2022/07/14 01:57:38;;;;;;;2.17;1.10;;;22.40;71.50;;;;;;5053189;28;20212;-83
2022/07/14 02:00:11;;;;;;;1.27;1.10;;;22.40;71.60;;;;;;5052713;28;20225;-83
2022/07/14 02:02:39;;;;;;;0.88;0.75;;;22.40;71.70;;;;;;5052364;28;20225;-87
2022/07/14 02:05:10;;;;;;;1.23;1.23;;;22.30;71.60;;;;;;5052577;28;20281;-83
2022/07/14 02:07:38;;;;;;;3.13;1.30;;;22.30;71.80;;;;;;5052837;28;20206;-83
2022/07/14 02:12:58;;;;;;;1.17;1.00;;;22.20;71.90;;;;;;5052803;28;20237;-83
2022/07/14 02:15:27;;;;;;;0.90;0.90;;;22.20;72.00;;;;;;5052444;28;20218;-83
2022/07/14 02:17:55;;;;;;;0.98;0.98;;;22.20;72.30;;;;;;5052554;28;20217;-83
2022/07/14 02:20:25;;;;;;;1.45;1.23;;;22.20;72.00;;;;;;5052415;28;20202;-83
2022/07/14 02:22:53;;;;;;;1.35;0.88;;;22.20;72.10;;;;;;5052527;28;20288;-83
2022/07/14 02:25:23;;;;;;;0.80;0.80;;;22.10;72.20;;;;;;5052821;28;20202;-83
2022/07/14 02:27:51;;;;;;;1.17;1.10;;;22.10;72.00;;;;;;5052591;28;20205;-83
2022/07/14 02:30:20;;;;;;;0.90;0.90;;;22.10;71.90;;;;;;5052219;28;20271;-82
2022/07/14 02:32:48;;;;;;;0.63;0.63;;;22.10;71.70;;;;;;5052616;28;20205;-83
2022/07/14 02:35:16;;;;;;;0.80;0.80;;;22.20;71.00;;;;;;5052532;28;20205;-83
2022/07/14 02:37:44;;;;;;;1.27;0.98;;;22.30;70.70;;;;;;5052531;28;20209;-83
2022/07/14 02:40:13;;;;;;;0.75;0.75;;;22.40;70.50;;;;;;5052211;28;20221;-83
2022/07/14 02:42:43;;;;;;;0.70;0.70;;;22.40;70.10;;;;;;5052108;28;20303;-83
2022/07/14 02:45:11;;;;;;;6.90;1.08;;;22.40;69.80;;;;;;5052261;28;20206;-83
2022/07/14 02:47:40;;;;;;;0.88;0.88;;;22.40;69.80;;;;;;5052315;28;20206;-83
2022/07/14 02:50:09;;;;;;;0.85;0.82;;;22.50;69.50;;;;;;5052292;28;20289;-83
2022/07/14 02:52:38;;;;;;;1.25;1.15;;;22.60;69.10;;;;;;5052328;28;20249;-83
2022/07/14 02:55:07;;;;;;;1.00;0.95;;;22.70;68.90;;;;;;5052171;28;20213;-83
2022/07/14 02:57:36;;;;;;;0.80;0.80;;;22.70;68.70;;;;;;5052123;28;20246;-83
2022/07/14 03:00:08;;;;;;;0.95;0.95;;;22.80;68.50;;;;;;5051999;28;20198;-83
2022/07/14 03:02:36;;;;;;;1.05;1.05;;;22.80;68.30;;;;;;5052657;28;20210;-83
2022/07/14 03:05:06;;;;;;;1.20;1.13;;;22.90;68.10;;;;;;5055584;28;20232;-83
2022/07/14 03:07:34;;;;;;;1.02;0.90;;;22.90;68.00;;;;;;5055706;28;20244;-83
2022/07/14 03:10:02;;;;;;;0.80;0.80;;;22.80;67.80;;;;;;5055523;28;20237;-83
2022/07/14 03:12:31;;;;;;;3.45;0.93;;;22.90;67.60;;;;;;5055506;28;20202;-83
2022/07/14 03:15:00;;;;;;;1.30;0.90;;;22.90;67.50;;;;;;5055336;28;20225;-83
2022/07/14 03:17:30;;;;;;;0.60;0.60;;;23.00;67.20;;;;;;5055465;28;20288;-83
2022/07/14 03:19:58;;;;;;;1.00;1.00;;;23.00;67.10;;;;;;5055380;28;20210;-83
2022/07/14 03:22:26;;;;;;;1.17;0.75;;;23.00;67.00;;;;;;5055258;28;20252;-83
2022/07/14 03:24:55;;;;;;;0.80;0.80;;;23.00;66.80;;;;;;5054950;28;20241;-83
2022/07/14 03:27:23;;;;;;;1.42;1.10;;;23.00;66.80;;;;;;5055516;28;20232;-83
2022/07/14 03:29:51;;;;;;;1.00;1.00;;;23.00;66.80;;;;;;5055369;28;20225;-83
2022/07/14 03:32:19;;;;;;;0.80;0.80;;;23.00;66.70;;;;;;5055558;28;20220;-83
2022/07/14 03:34:49;;;;;;;0.60;0.60;;;23.00;66.60;;;;;;5055440;28;20313;-83
2022/07/14 03:37:17;;;;;;;1.10;1.10;;;23.10;66.60;;;;;;5055218;28;20309;-83
2022/07/14 03:39:47;;;;;;;1.10;1.10;;;23.10;66.80;;;;;;5055176;28;20240;-83
2022/07/14 03:42:15;;;;;;;1.05;0.88;;;23.10;66.80;;;;;;5055070;28;20279;-83
2022/07/14 03:44:45;;;;;;;1.00;1.00;;;23.00;66.80;;;;;;5055347;28;20268;-83
2022/07/14 03:47:13;;;;;;;1.05;0.95;;;23.00;66.70;;;;;;5055140;28;20206;-83
2022/07/14 03:49:41;;;;;;;0.90;0.90;;;23.00;66.90;;;;;;5054795;28;20198;-83
2022/07/14 03:52:15;;;;;;;0.85;0.85;;;23.00;67.10;;;;;;5054795;28;20209;-83
2022/07/14 03:54:45;;;;;;;1.05;0.90;;;23.00;67.80;;;;;;5054735;28;20319;-83
2022/07/14 03:57:14;;;;;;;1.55;1.40;;;22.90;70.20;;;;;;5054513;28;20222;-83
2022/07/14 03:59:42;;;;;;;1.65;1.15;;;22.80;71.60;;;;;;5054891;28;20205;-83
2022/07/14 04:02:11;;;;;;;1.10;1.10;;;22.60;72.70;;;;;;5054474;28;20206;-83
2022/07/14 04:04:40;;;;;;;1.55;1.45;;;22.50;73.50;;;;;;5054558;28;20226;-83
2022/07/14 04:07:09;;;;;;;1.08;0.98;;;22.30;74.20;;;;;;5054635;28;20228;-83
2022/07/14 04:09:39;;;;;;;1.20;1.10;;;22.20;74.70;;;;;;5054505;28;20202;-83
2022/07/14 04:12:08;;;;;;;0.88;0.88;;;22.10;75.10;;;;;;5054465;28;20209;-83
2022/07/14 04:14:36;;;;;;;1.00;1.00;;;22.10;75.60;;;;;;5053624;28;20233;-82
2022/07/14 04:17:05;;;;;;;1.20;1.10;;;21.90;75.90;;;;;;5054069;28;20226;-83
2022/07/14 04:19:33;;;;;;;1.30;1.20;;;21.90;76.50;;;;;;5054661;28;20201;-82
2022/07/14 04:22:01;;;;;;;1.20;1.10;;;21.80;76.90;;;;;;5054200;28;20213;-83
2022/07/14 04:24:51;;;;;;;1.10;1.10;;;21.80;77.30;;;;;;5054296;28;20218;-83
2022/07/14 04:27:20;;;;;;;1.30;1.20;;;21.70;77.50;;;;;;5054757;28;20194;-83
2022/07/14 04:29:48;;;;;;;1.52;1.42;;;21.70;77.80;;;;;;5054320;28;20206;-83
2022/07/14 04:32:16;;;;;;;1.65;1.55;;;21.70;78.10;;;;;;5053934;28;20197;-83
2022/07/14 04:34:45;;;;;;;1.60;1.50;;;21.60;78.40;;;;;;5054227;28;20226;-82
2022/07/14 04:37:14;;;;;;;1.50;1.40;;;21.50;78.60;;;;;;5054084;28;20283;-83
2022/07/14 04:39:42;;;;;;;1.35;1.25;;;21.50;78.80;;;;;;5053976;28;20202;-83
2022/07/14 04:42:12;;;;;;;1.40;1.30;;;21.50;79.00;;;;;;5053553;28;20210;-83
2022/07/14 04:44:41;;;;;;;1.52;1.42;;;21.50;79.00;;;;;;5053560;28;20252;-83
2022/07/14 04:47:09;;;;;;;1.80;1.70;;;21.40;79.20;;;;;;5053824;28;20205;-83
2022/07/14 04:52:23;;;;;;;1.45;1.35;;;21.50;79.30;;;;;;5053654;28;20210;-83
2022/07/14 04:54:52;;;;;;;1.35;1.25;;;21.50;79.30;;;;;;5054114;28;20229;-83
2022/07/14 04:57:22;;;;;;;1.48;1.35;;;21.60;79.40;;;;;;5053523;28;20268;-83
2022/07/14 04:59:53;;;;;;;3.03;1.52;;;21.60;79.20;;;;;;5053620;28;20209;-83
2022/07/14 05:02:21;;;;;;;2.92;2.00;;;21.60;79.40;;;;;;5053371;28;20256;-83
2022/07/14 05:04:50;;;;;;;1.45;1.27;;;21.60;79.40;;;;;;5053778;28;20222;-83
2022/07/14 05:07:18;;;;;;;2.67;1.25;;;21.60;79.40;;;;;;5053552;28;20266;-83
2022/07/14 05:09:46;;;;;;;2.22;1.42;;;21.60;79.40;;;;;;5053476;28;20210;-83
2022/07/14 05:12:16;;;;;;;1.40;1.30;;;21.60;79.70;;;;;;5053370;28;20206;-83
2022/07/14 05:14:46;;;;;;;1.20;1.20;;;21.60;79.70;;;;;;5053310;28;20253;-83
2022/07/14 05:17:14;;;;;;;1.80;1.50;;;21.50;79.60;;;;;;5053158;28;20222;-83
2022/07/14 05:19:46;;;;;;;3.45;1.30;;;21.50;80.00;;;;;;5053494;28;20198;-83
2022/07/14 05:22:15;;;;;;;2.13;1.60;;;21.50;80.20;;;;;;5053075;28;20202;-83
2022/07/14 05:24:43;;;;;;;1.20;1.20;;;21.50;80.40;;;;;;5053181;28;20247;-83
2022/07/14 05:27:12;;;;;;;1.67;1.33;;;21.50;80.20;;;;;;5053047;28;20227;-83
2022/07/14 05:29:40;;;;;;;1.95;1.48;;;21.60;80.10;;;;;;5053160;28;20201;-83
2022/07/14 05:32:10;;;;;;;1.70;1.52;;;21.70;79.80;;;;;;5053194;28;20213;-83
2022/07/14 05:34:42;;;;;;;1.60;1.50;;;21.80;79.90;;;;;;5053010;28;20225;-83
2022/07/14 05:37:11;;;;;;;1.60;1.50;;;21.90;79.30;;;;;;5053159;28;20228;-83
2022/07/14 05:39:39;;;;;;;1.63;1.38;;;22.10;79.10;;;;;;5053158;28;20206;-83
2022/07/14 05:42:08;;;;;;;1.75;1.27;;;22.30;79.10;;;;;;5052907;28;20210;-82
2022/07/14 05:44:36;;;;;;;1.35;1.15;;;22.40;78.60;;;;;;5052778;28;20221;-83
2022/07/14 05:47:04;;;;;;;2.22;1.75;;;22.40;77.60;;;;;;5052718;28;20259;-83
2022/07/14 05:49:35;;;;;;;1.23;1.13;;;22.40;77.80;;;;;;5052770;28;20226;-83
2022/07/14 05:52:05;;;;;;;1.73;1.60;;;22.50;77.90;;;;;;5052869;28;20210;-83
2022/07/14 05:54:34;;;;;;;1.40;1.30;;;22.50;77.50;;;;;;5052737;28;20225;-83
2022/07/14 05:57:02;;;;;;;1.42;1.20;;;22.60;77.60;;;;;;5052725;28;20233;-83
2022/07/14 05:59:31;;;;;;;1.00;1.00;;;22.60;77.80;;;;;;5053031;28;20241;-82
2022/07/14 06:02:13;;;;;;;1.50;1.40;;;22.70;77.90;;;;;;5052522;28;20387;-83
2022/07/14 06:04:43;;;;;;;1.40;1.25;;;22.90;78.10;;;;;;5052214;28;20229;-83
2022/07/14 06:07:12;;;;;;;1.50;1.40;;;22.90;78.00;;;;;;5050693;28;20222;-83
2022/07/14 06:09:40;;;;;;;2.03;1.35;;;23.00;77.70;;;;;;5041466;28;20202;-87
2022/07/14 06:12:10;;;;;;;3.35;1.65;;;23.20;77.80;;;;;;5052960;28;20228;-82
2022/07/14 06:14:40;;;;;;;1.80;1.33;;;23.30;78.00;;;;;;5052686;28;20221;-82
2022/07/14 06:17:09;;;;;;;2.25;1.30;;;23.40;78.00;;;;;;5052583;28;20206;-82
2022/07/14 06:19:38;;;;;;;3.00;1.60;;;23.50;77.80;;;;;;5052469;28;20267;-84
2022/07/14 06:22:08;;;;;;;1.45;1.35;;;23.60;77.60;;;;;;5052410;28;20214;-83
2022/07/14 06:24:38;;;;;;;1.60;1.50;;;23.70;76.70;;;;;;5052416;28;20239;-84
2022/07/14 06:27:14;;;;;;;2.33;1.80;;;23.90;77.10;;;;;;5036517;28;20217;-83
2022/07/14 06:29:42;;;;;;;5.43;2.03;;;24.00;76.60;;;;;;5032516;28;20256;-84
2022/07/14 06:32:11;;;;;;;2.50;1.42;;;24.20;76.40;;;;;;5032166;28;20252;-84
2022/07/14 06:34:39;;;;;;;3.63;1.67;;;24.50;76.40;;;;;;5036259;28;20229;-83
2022/07/14 06:37:09;;;;;;;2.42;1.48;;;24.70;75.50;;;;;;5052708;28;20201;-83
2022/07/14 06:39:39;;;;;;;2.10;1.60;;;24.90;75.10;;;;;;5056071;28;20283;-83
2022/07/14 06:42:07;;;;;;;1.58;1.35;;;25.20;74.10;;;;;;5055117;28;20205;-83
2022/07/14 06:44:36;;;;;;;1.10;1.10;;;25.50;72.70;;;;;;5052688;28;20222;-83
2022/07/14 06:47:04;;;;;;;4.05;1.40;;;25.60;72.80;;;;;;5054651;28;20198;-83
2022/07/14 06:49:33;;;;;;;1.30;1.00;;;25.80;72.00;;;;;;5037682;28;20199;-83
2022/07/14 06:52:01;;;;;;;1.48;1.20;;;25.80;71.80;;;;;;5043824;28;20202;-83
2022/07/14 06:54:31;;;;;;;1.30;1.20;;;25.90;71.50;;;;;;5038034;28;20250;-83
2022/07/14 06:56:59;;;;;;;1.38;1.27;;;26.00;70.90;;;;;;5056629;28;20240;-83
2022/07/14 06:59:27;;;;;;;2.85;1.35;;;26.10;70.40;;;;;;5055481;28;20256;-84
2022/07/14 07:01:56;;;;;;;1.33;1.23;;;26.10;69.30;;;;;;5056508;28;20202;-83
2022/07/14 07:04:24;;;;;;;1.67;1.40;;;26.40;69.20;;;;;;5048121;28;20247;-83
2022/07/14 07:06:55;;;;;;;1.42;1.30;;;26.70;68.70;;;;;;5049791;28;20202;-83
2022/07/14 07:09:24;;;;;;;1.55;1.45;;;26.70;67.70;;;;;;5056534;28;20205;-82
2022/07/14 07:11:53;;;;;;;2.08;1.23;;;26.90;66.80;;;;;;5042368;28;20205;-78
2022/07/14 07:14:22;;;;;;;1.30;1.20;;;27.20;66.40;;;;;;5073711;28;20257;-77
2022/07/14 07:16:51;;;;;;;1.27;1.20;;;27.40;66.00;;;;;;5075306;28;20304;-83
2022/07/14 07:19:20;;;;;;;2.03;1.48;;;27.80;65.20;;;;;;5076011;28;20228;-83
2022/07/14 07:21:48;;;;;;;2.72;1.45;;;27.80;64.20;;;;;;5070732;28;20229;-83
2022/07/14 07:24:16;;;;;;;1.27;1.17;;;27.90;62.40;;;;;;5051360;28;20245;-86
2022/07/14 07:26:44;;;;;;;1.20;1.10;;;27.90;62.40;;;;;;5042412;28;20234;-86
2022/07/14 07:29:14;;;;;;;1.05;1.05;;;28.10;63.70;;;;;;5059519;28;20220;-85
2022/07/14 07:31:43;;;;;;;0.93;0.93;;;28.40;63.00;;;;;;5056266;28;20210;-82
2022/07/14 07:34:11;;;;;;;0.68;0.68;;;28.90;59.80;;;;;;5055674;28;20252;-82
2022/07/14 07:36:40;;;;;;;1.20;1.17;;;29.40;59.30;;;;;;5055579;28;20205;-83
2022/07/14 07:39:28;;;;;;;1.05;1.05;;;29.20;59.20;;;;;;5054792;28;20254;-82
2022/07/14 07:41:59;;;;;;;1.08;1.05;;;29.50;58.30;;;;;;5054948;28;20267;-82
2022/07/14 07:44:30;;;;;;;3.53;1.13;;;30.00;57.90;;;;;;5054721;28;20271;-82
2022/07/14 07:46:59;;;;;;;2.45;1.35;;;;;;;;;;5055115;28;20231;-82
2022/07/14 07:49:28;;;;;;;1.55;1.30;;;;;;;;;;5054384;28;20201;-82
2022/07/14 07:52:00;;;;;;;1.35;1.25;;;31.30;57.70;;;;;;5054830;28;20259;-82
2022/07/14 07:54:29;;;;;;;0.80;0.80;;;35.80;51.60;;;;;;5054953;28;20229;-82
2022/07/14 07:57:18;;;;;;;1.20;1.10;;;37.00;50.90;;;;;;5054845;28;20232;-82
2022/07/14 07:59:49;;;;;;;1.27;0.98;;;36.90;49.60;;;;;;5054715;28;20236;-82
2022/07/14 08:02:17;;;;;;;1.00;1.00;;;36.90;49.10;;;;;;5054638;28;20209;-82
2022/07/14 08:04:48;;;;;;;0.90;0.90;;;37.20;48.30;;;;;;5054766;28;20236;-82
2022/07/14 08:07:16;;;;;;;0.70;0.70;;;38.10;47.60;;;;;;5054621;28;20209;-82
2022/07/14 08:09:45;;;;;;;1.20;1.05;;;38.00;46.80;;;;;;5054486;28;20209;-82
2022/07/14 08:12:13;;;;;;;2.08;0.90;;;37.10;46.50;;;;;;5054294;28;20209;-82
2022/07/14 08:14:51;;;;;;;1.55;1.10;;;36.20;47.60;;;;;;5054486;28;20221;-82
2022/07/14 08:17:22;;;;;;;0.80;0.80;;;36.30;47.70;;;;;;5054454;28;20314;-82
2022/07/14 08:19:51;;;;;;;1.17;1.15;;;37.00;47.80;;;;;;5054383;28;20220;-82
2022/07/14 08:22:24;;;;;;;1.20;1.10;;;37.70;45.80;;;;;;5054384;28;20205;-82
2022/07/14 08:24:53;;;;;;;0.85;0.85;;;38.10;46.10;;;;;;5054354;28;20300;-82
2022/07/14 08:27:22;;;;;;;0.90;0.90;;;37.80;43.90;;;;;;5054346;28;20255;-82
2022/07/14 08:29:51;;;;;;;0.88;0.85;;;37.90;43.30;;;;;;5054331;28;20225;-82
2022/07/14 08:32:35;;;;;;;1.08;0.70;;;38.00;43.80;;;;;;5054297;28;20259;-82
2022/07/14 08:35:05;;;;;;;0.80;0.80;;;37.40;43.10;;;;;;5054470;28;20231;-82
2022/07/14 08:37:34;;;;;;;1.15;1.10;;;36.70;43.40;;;;;;5054186;28;20209;-82
2022/07/14 08:40:05;;;;;;;0.90;0.90;;;37.50;43.30;;;;;;5053875;28;20217;-82
2022/07/14 08:42:34;;;;;;;0.80;0.80;;;38.50;42.80;;;;;;5054298;28;20209;-82
2022/07/14 08:45:07;;;;;;;0.50;0.50;;;39.10;41.80;;;;;;5054159;28;20267;-82
2022/07/14 08:47:38;;;;;;;1.02;0.73;;;38.80;41.70;;;;;;5054301;28;20232;-82
2022/07/14 08:50:09;;;;;;;3.33;1.08;;;38.80;40.40;;;;;;5053597;28;20197;-82
2022/07/14 08:52:38;;;;;;;0.70;0.70;;;39.70;42.20;;;;;;5053816;28;20205;-82
2022/07/14 08:55:09;;;;;;;0.93;0.93;;;40.20;39.20;;;;;;5053664;28;20201;-82
2022/07/14 08:57:38;;;;;;;0.70;0.70;;;39.40;39.60;;;;;;5053853;28;20278;-82
2022/07/14 09:00:10;;;;;;;0.70;0.70;;;39.30;39.40;;;;;;5053178;28;20287;-82
2022/07/14 09:02:47;;;;;;;0.80;0.80;;;39.00;39.70;;;;;;5053787;28;20213;-82
2022/07/14 09:05:35;;;;;;;1.02;0.80;;;38.90;40.80;;;;;;5053767;28;20312;-82
2022/07/14 09:08:03;;;;;;;1.55;0.73;;;38.30;42.30;;;;;;5053406;28;20205;-82
2022/07/14 09:10:31;;;;;;;1.35;1.25;;;37.90;41.30;;;;;;5053162;28;20198;-82
2022/07/14 09:13:21;;;;;;;0.88;0.88;;;37.50;41.30;;;;;;5053407;28;20221;-82
2022/07/14 09:16:10;;;;;;;0.98;0.98;;;37.60;41.20;;;;;;5053454;28;20209;-82
2022/07/14 09:18:41;;;;;;;0.77;0.77;;;37.40;43.10;;;;;;5053513;28;20213;-82
2022/07/14 09:21:20;;;;;;;0.93;0.88;;;37.70;40.80;;;;;;5052904;28;20240;-82
2022/07/14 09:23:49;;;;;;;0.90;0.90;;;37.30;40.10;;;;;;5052983;28;20292;-82
2022/07/14 09:26:19;;;;;;;0.85;0.85;;;37.60;41.70;;;;;;5053311;28;20201;-82
2022/07/14 09:28:49;;;;;;;1.17;0.80;;;37.30;40.50;;;;;;5053111;28;20259;-83
2022/07/14 09:31:23;;;;;;;0.85;0.85;;;37.40;40.70;;;;;;5053233;28;20201;-82
2022/07/14 09:33:55;;;;;;;1.88;0.90;;;37.20;41.70;;;;;;5053094;28;20226;-82
2022/07/14 09:36:28;;;;;;;1.50;1.02;;;36.90;40.20;;;;;;5052958;28;20212;-82
2022/07/14 09:39:02;;;;;;;1.58;1.10;;;36.70;40.50;;;;;;5053013;28;20216;-82
2022/07/14 09:41:33;;;;;;;2.28;0.90;;;36.70;41.70;;;;;;5052777;28;20212;-82
2022/07/14 09:44:10;;;;;;;1.23;0.90;;;36.70;41.00;;;;;;5052906;28;20225;-82
2022/07/14 09:46:46;;;;;;;0.98;0.98;;;37.20;40.00;;;;;;5052917;28;20209;-82
2022/07/14 09:49:17;;;;;;;1.30;0.85;;;37.30;41.50;;;;;;5052537;28;20208;-82
2022/07/14 09:51:57;;;;;;;0.80;0.80;;;37.40;40.20;;;;;;5052890;28;20205;-82
2022/07/14 09:54:43;;;;;;;1.15;0.77;;;37.80;40.70;;;;;;5052491;28;20296;-82
2022/07/14 09:57:24;;;;;;;0.82;0.82;;;37.70;39.30;;;;;;5052879;28;20212;-82
2022/07/14 09:59:55;;;;;;;1.00;0.98;;;36.90;39.30;;;;;;5052988;28;20221;-82
2022/07/14 10:02:26;;;;;;;1.23;1.15;;;36.40;40.30;;;;;;5052727;28;20225;-82
2022/07/14 10:05:01;;;;;;;0.77;0.77;;;36.30;40.40;;;;;;5052886;28;20229;-83
2022/07/14 10:07:36;;;;;;;0.93;0.93;;;36.90;39.80;;;;;;5052518;28;20239;-82
2022/07/14 10:10:06;;;;;;;0.88;0.88;;;36.70;40.00;;;;;;5052747;28;20213;-82
2022/07/14 10:12:36;;;;;;;0.73;0.73;;;36.70;39.70;;;;;;5053666;28;20255;-82
2022/07/14 10:15:07;;;;;;;0.80;0.80;;;37.10;40.30;;;;;;5056905;28;20256;-82
2022/07/14 10:17:37;;;;;;;1.05;1.05;;;37.50;39.90;;;;;;5056640;28;20266;-82
2022/07/14 10:20:10;;;;;;;0.85;0.85;;;36.90;38.40;;;;;;5056680;28;20289;-82
2022/07/14 10:22:40;;;;;;;1.00;1.00;;;36.80;39.20;;;;;;5056806;28;20252;-82
2022/07/14 10:25:10;;;;;;;0.68;0.68;;;36.90;38.40;;;;;;5056617;28;20220;-82
2022/07/14 10:27:41;;;;;;;1.02;1.02;;;36.10;38.40;;;;;;5056425;28;20242;-82
2022/07/14 10:30:11;;;;;;;1.30;1.20;;;35.90;39.00;;;;;;5056216;28;20201;-82
2022/07/14 10:32:47;;;;;;;1.00;1.00;;;35.90;40.10;;;;;;5056529;28;20201;-82
2022/07/14 10:35:42;;;;;;;4.25;1.15;;;36.00;40.60;;;;;;5056470;28;20263;-82
2022/07/14 10:38:42;;;;;;;1.25;1.15;;;35.60;40.80;;;;;;5056525;28;20233;-82
2022/07/14 10:41:25;;;;;;;0.95;0.95;;;35.30;41.90;;;;;;5056185;28;20225;-82
2022/07/14 10:44:07;;;;;;;2.45;1.08;;;34.70;42.80;;;;;;5056521;28;20228;-82
2022/07/14 10:46:46;;;;;;;1.55;0.93;;;34.40;43.30;;;;;;5056810;28;20201;-82
2022/07/14 10:49:16;;;;;;;2.10;1.20;;;34.40;43.80;;;;;;5056069;28;20217;-82
2022/07/14 10:51:50;;;;;;;0.82;0.82;;;34.90;43.90;;;;;;5055787;28;20235;-82
2022/07/14 10:54:25;;;;;;;0.90;0.90;;;34.80;42.90;;;;;;5056079;28;20255;-82
2022/07/14 10:57:13;;;;;;;1.10;1.10;;;35.00;42.30;;;;;;5056157;28;20216;-83
2022/07/14 10:59:43;;;;;;;0.85;0.85;;;35.00;41.90;;;;;;5042919;28;20217;-82
2022/07/14 11:02:33;;;;;;;2.63;1.38;;;34.60;42.40;;;;;;5036357;28;20210;-82
2022/07/14 11:05:22;;;;;;;0.68;0.68;;;34.20;42.80;;;;;;5029861;28;20229;-82
2022/07/14 11:08:09;;;;;;;1.08;1.08;;;33.70;42.80;;;;;;5036842;28;20242;-82
2022/07/14 11:11:08;;;;;;;1.40;1.30;;;33.70;42.60;;;;;;5036544;28;20218;-82
2022/07/14 11:14:07;;;;;;;1.52;1.40;;;34.20;42.50;;;;;;5047804;28;20236;-89
2022/07/14 11:16:57;;;;;;;1.20;1.10;;;34.20;42.70;;;;;;5056789;28;20221;-82
2022/07/14 11:19:31;;;;;;;1.00;1.00;;;34.60;42.90;;;;;;5056400;28;20231;-82
2022/07/14 11:22:21;;;;;;;1.67;1.30;;;34.80;42.50;;;;;;5055828;28;20248;-83
2022/07/14 11:24:53;;;;;;;1.02;1.02;;;34.60;42.80;;;;;;5055939;28;20248;-82
2022/07/14 11:27:47;;;;;;;1.23;1.13;;;35.00;43.20;;;;;;5055760;28;20270;-82
2022/07/14 11:30:28;;;;;;;1.10;1.10;;;35.30;42.70;;;;;;5055732;28;20290;-80
2022/07/14 11:33:05;;;;;;;2.35;1.35;;;35.20;42.70;;;;;;5056404;28;20215;-80
2022/07/14 11:38:36;;;;;;;1.30;1.20;;;35.10;42.90;;;;;;5055867;28;20220;-82
2022/07/14 11:41:10;;;;;;;1.23;1.17;;;35.20;42.60;;;;;;5055573;28;20264;-83
2022/07/14 11:43:46;;;;;;;1.63;1.08;;;35.10;42.80;;;;;;5055729;28;20221;-83
2022/07/14 11:46:23;;;;;;;0.90;0.90;;;35.00;42.70;;;;;;5056143;28;20225;-83
2022/07/14 11:48:53;;;;;;;0.82;0.82;;;34.80;42.90;;;;;;5055936;28;20209;-83
2022/07/14 11:51:25;;;;;;;1.00;1.00;;;34.50;42.70;;;;;;5049555;28;20229;-83
2022/07/14 11:53:56;;;;;;;1.70;1.60;;;34.30;43.40;;;;;;5055861;28;20244;-83
2022/07/14 11:56:27;;;;;;;1.63;1.52;;;33.90;43.00;;;;;;5055700;28;20232;-83
2022/07/14 11:59:02;;;;;;;3.63;2.20;;;33.50;42.90;;;;;;5055484;28;20294;-83
2022/07/14 12:01:34;;;;;;;1.83;1.63;;;33.30;43.00;;;;;;5055428;28;20221;-82
2022/07/14 12:04:07;;;;;;;1.30;1.20;;;33.50;43.70;;;;;;5055792;28;20252;-82
2022/07/14 12:06:39;;;;;;;1.52;1.42;;;34.10;43.60;;;;;;5055379;28;20193;-82
2022/07/14 12:09:07;;;;;;;1.00;1.00;;;34.90;44.20;;;;;;5055291;28;20197;-83
2022/07/14 12:11:57;;;;;;;1.08;1.08;;;35.30;41.80;;;;;;5054719;28;20194;-83
2022/07/14 12:14:26;;;;;;;1.40;1.10;;;35.70;41.50;;;;;;5055178;28;20244;-83
2022/07/14 12:16:55;;;;;;;1.00;1.00;;;35.70;41.40;;;;;;5055076;28;20240;-83
2022/07/14 12:19:28;;;;;;;1.85;1.52;;;35.80;40.60;;;;;;5055426;28;20236;-83
2022/07/14 12:22:00;;;;;;;1.88;1.77;;;35.70;40.60;;;;;;5054471;28;20213;-83
2022/07/14 12:24:29;;;;;;;1.40;1.30;;;35.80;40.40;;;;;;5054856;28;20225;-83
2022/07/14 12:27:00;;;;;;;1.17;1.10;;;36.20;40.00;;;;;;5055062;28;20212;-83
2022/07/14 12:29:29;;;;;;;1.30;1.20;;;36.30;40.30;;;;;;5055144;28;20229;-88
2022/07/14 12:31:57;;;;;;;0.90;0.90;;;36.30;40.20;;;;;;5054467;28;20286;-83
2022/07/14 12:34:26;;;;;;;0.95;0.95;;;36.40;40.30;;;;;;5034874;28;20249;-83
2022/07/14 12:36:57;;;;;;;1.85;1.33;;;36.50;40.40;;;;;;5036664;28;20214;-83
2022/07/14 12:39:26;;;;;;;1.00;1.00;;;36.10;40.70;;;;;;5055074;28;20209;-83
2022/07/14 12:41:55;;;;;;;1.20;1.08;;;36.00;41.30;;;;;;5054329;28;20217;-83
2022/07/14 12:44:25;;;;;;;1.30;1.20;;;35.60;41.50;;;;;;5054628;28;20252;-83
2022/07/14 12:47:15;;;;;;;1.45;1.35;;;35.50;41.70;;;;;;5054805;28;20258;-83
2022/07/14 12:49:45;;;;;;;1.15;1.10;;;35.70;41.70;;;;;;5050491;28;20253;-83
2022/07/14 12:52:15;;;;;;;1.10;1.10;;;35.50;41.70;;;;;;5054253;28;20197;-83
2022/07/14 12:54:44;;;;;;;1.45;1.00;;;35.50;42.60;;;;;;5054358;28;20232;-83
2022/07/14 12:57:35;;;;;;;1.10;1.10;;;35.50;41.90;;;;;;5054398;28;20241;-83
2022/07/14 13:00:14;;;;;;;1.17;1.17;;;35.50;41.90;;;;;;5054415;28;20205;-83
2022/07/14 13:02:42;;;;;;;1.23;1.23;;;35.50;42.40;;;;;;5053807;28;20213;-83
2022/07/14 13:05:11;;;;;;;1.85;1.60;;;35.50;41.80;;;;;;5054118;28;20205;-83
2022/07/14 13:07:40;;;;;;;1.80;1.55;;;35.40;42.10;;;;;;5054496;28;20209;-83
2022/07/14 13:10:12;;;;;;;3.33;1.90;;;35.30;42.40;;;;;;5053914;28;20201;-83
2022/07/14 13:12:41;;;;;;;1.00;1.00;;;35.20;43.10;;;;;;5053997;28;20280;-83
2022/07/14 13:15:15;;;;;;;1.13;1.13;;;35.50;42.90;;;;;;5054054;28;20205;-83
2022/07/14 13:17:51;;;;;;;1.15;1.15;;;35.40;42.70;;;;;;5053813;28;20228;-83